M I D A S
Marine Information and Data Acquisition System
Tripno 1213 of the Zeeleeuw from 2007-02-19 08:25:30 to 2007-02-19 16:47:37
Back to CruiseResearch ActivitiesStationsMapUnderway DataData graphs

EquipmentUnitsComments
TimeDGPSUTC
LatitudeDGPSDM.mWGS84
LongitudeDGPSDM.mWGS84
SpeedMeteo Stationm/sRelative wind speed
DirectionMeteo StationdegRelative wind direction
TemperatureMeteo Stationdeg CelciusAir temperature
PressureMeteo StationPaAtmospheric pressure
HumidityMeteo Station%Relative humidity
Missing or incorrect values are displayed as -999
Metereological data collected by the RV Zeeleeuw from 2007-02-19 08:29:15 to 2007-02-19 16:56:02
Time Latitude Longitude Speed Direction Temperature Pressure Humidity
2007-02-19 08:30 51°13.611 2°56.043 1.1 23 5.9 101370 100
2007-02-19 08:31 51°13.641 2°55.95 0.6 39 5.9 101370 100
2007-02-19 08:32 51°13.688 2°55.851 0.6 32 5.9 101370 100
2007-02-19 08:33 51°13.727 2°55.761 1.3 1 5.9 101370 100
2007-02-19 08:34 51°13.745 2°55.694 2 7 5.9 101370 100
2007-02-19 08:35 51°13.754 2°55.684 2.8 21 5.9 101370 100
2007-02-19 08:36 51°13.756 2°55.668 2.4 33 6 101370 100
2007-02-19 08:37 51°13.806 2°55.641 0.2 24 6 101370 100
2007-02-19 08:38 51°13.924 2°55.562 1.3 8 5.9 101370 100
2007-02-19 08:39 51°14.067 2°55.48 2.1 348 6 101370 100
2007-02-19 08:40 51°14.201 2°55.364 2.2 334 6 101370 100
2007-02-19 08:41 51°14.31 2°55.18 1.9 322 6 101370 100
2007-02-19 08:42 51°14.401 2°54.978 3.4 303 6 101370 100
2007-02-19 08:43 51°14.448 2°54.684 5 307 6 101360 100
2007-02-19 08:44 51°14.386 2°54.388 7.8 316 6 101350 100
2007-02-19 08:45 51°14.281 2°54.113 7.8 305 6 101340 100
2007-02-19 08:46 51°14.175 2°53.832 7.4 303 6 101340 100
2007-02-19 08:47 51°14.068 2°53.549 6.9 35 6 101340 100
2007-02-19 08:48 51°13.962 2°53.264 8.2 34 6 101340 100
2007-02-19 08:49 51°13.855 2°52.975 6.4 315 6 101330 100
2007-02-19 08:50 51°13.746 2°52.676 7.9 306 6 101330 100
2007-02-19 08:51 51°13.623 2°52.347 8.6 318 6.1 101330 100
2007-02-19 08:52 51°13.502 2°52.004 8.8 309 6.1 101330 100
2007-02-19 08:53 51°13.383 2°51.656 8.6 318 6.1 101320 100
2007-02-19 08:54 51°13.267 2°51.304 8.6 316 6.2 101330 100
2007-02-19 08:55 51°13.147 2°50.953 9.4 308 6.2 101330 100
2007-02-19 08:56 51°13.029 2°50.599 8.5 305 6.1 101320 100
2007-02-19 08:57 51°12.912 2°50.243 8.9 307 6.2 101320 100
2007-02-19 08:58 51°12.792 2°49.888 8.1 307 6.2 101320 100
2007-02-19 08:59 51°12.673 2°49.53 8.3 306 6.2 101320 100
2007-02-19 09:00 51°12.553 2°49.171 9.2 305 6.2 101320 100
2007-02-19 09:01 51°12.432 2°48.811 8.5 303 6.2 101320 100
2007-02-19 09:02 51°12.312 2°48.455 9.6 309 6.2 101310 100
2007-02-19 09:03 51°12.191 2°48.098 9.4 304 6.2 101310 100
2007-02-19 09:04 51°12.081 2°47.731 8.4 305 6.2 101320 100
2007-02-19 09:05 51°11.973 2°47.365 9.3 310 6.2 101320 100
2007-02-19 09:06 51°11.864 2°46.999 8.2 308 6.2 101310 100
2007-02-19 09:07 51°11.756 2°46.633 8.2 309 6.3 101310 100
2007-02-19 09:08 51°11.648 2°46.266 9.1 303 6.3 101300 100
2007-02-19 09:09 51°11.543 2°45.898 8.2 309 6.3 101310 100
2007-02-19 09:10 51°11.447 2°45.525 8.1 309 6.3 101310 100
2007-02-19 09:11 51°11.351 2°45.154 10.1 306 6.3 101310 100
2007-02-19 09:12 51°11.257 2°44.782 7.5 308 6.3 101310 100
2007-02-19 09:13 51°11.172 2°44.405 8.6 306 6.3 101320 100
2007-02-19 09:14 51°11.092 2°44.025 8 310 6.3 101310 100
2007-02-19 09:15 51°11.013 2°43.645 7.5 307 6.4 101310 100
2007-02-19 09:16 51°10.936 2°43.265 7.8 308 6.4 101310 100
2007-02-19 09:17 51°10.859 2°42.884 8.4 307 6.4 101310 100
2007-02-19 09:18 51°10.782 2°42.504 7.6 303 6.4 101310 100
2007-02-19 09:19 51°10.706 2°42.123 7.7 303 6.4 101310 100
2007-02-19 09:20 51°10.659 2°41.784 3.4 305 6.4 101310 100
2007-02-19 09:21 51°10.722 2°41.664 1 55 6.4 101330 100
2007-02-19 09:22 51°10.784 2°41.66 2.5 2 6.5 101330 100
2007-02-19 09:23 51°10.862 2°41.749 3.2 17 6.5 101320 100
2007-02-19 09:24 51°10.929 2°41.814 2.9 7 6.4 101330 100
2007-02-19 09:25 51°10.983 2°41.879 3.2 10 6.4 101330 100
2007-02-19 09:26 51°11.03 2°41.953 3.8 13 6.4 101320 100
2007-02-19 09:27 51°11.075 2°42.027 3.6 5 6.5 101320 100
2007-02-19 09:28 51°11.111 2°42.075 3.8 32 6.5 101320 100
2007-02-19 09:29 51°11.115 2°42.06 2.8 40 6.5 101320 100
2007-02-19 09:30 51°11.118 2°42.037 4 44 6.5 101320 100
2007-02-19 09:31 51°11.123 2°42.012 3.7 40 6.4 101320 100
2007-02-19 09:32 51°11.126 2°41.988 4.5 39 6.5 101320 100
2007-02-19 09:33 51°11.127 2°41.966 3.3 33 6.4 101310 100
2007-02-19 09:34 51°11.127 2°41.945 4 29 6.4 101310 100
2007-02-19 09:35 51°11.13 2°41.934 3.8 27 6.5 101310 100
2007-02-19 09:36 51°11.18 2°41.886 2.8 309 6.4 101310 100
2007-02-19 09:37 51°11.161 2°41.68 7.2 308 6.5 101310 100
2007-02-19 09:38 51°11.073 2°41.356 9.3 307 6.5 101290 100
2007-02-19 09:39 51°10.973 2°41.004 8.9 306 6.4 101290 100
2007-02-19 09:40 51°10.876 2°40.647 9.4 304 6.5 101280 100
2007-02-19 09:41 51°10.809 2°40.273 9.4 303 6.5 101290 100
2007-02-19 09:42 51°10.752 2°39.893 8.7 310 6.5 101290 100
2007-02-19 09:43 51°10.693 2°39.512 8.5 305 6.5 101280 100
2007-02-19 09:44 51°10.634 2°39.129 9.2 304 6.5 101280 100
2007-02-19 09:45 51°10.577 2°38.748 9.6 305 6.5 101290 100
2007-02-19 09:46 51°10.522 2°38.368 9 30 6.5 101280 100
2007-02-19 09:47 51°10.471 2°37.992 8.9 305 6.5 101280 100
2007-02-19 09:48 51°10.438 2°37.616 8.4 310 6.5 101290 100
2007-02-19 09:49 51°10.419 2°37.238 7.9 302 6.5 101280 100
2007-02-19 09:50 51°10.431 2°36.866 7.4 305 6.5 101290 100
2007-02-19 09:51 51°10.527 2°36.56 3.9 304 6.5 101300 100
2007-02-19 09:52 51°10.725 2°36.493 2.8 339 6.6 101310 100
2007-02-19 09:53 51°10.931 2°36.561 3.2 343 6.6 101310 100
2007-02-19 09:54 51°11.139 2°36.614 3.3 334 6.6 101310 100
2007-02-19 09:55 51°11.348 2°36.656 2.6 346 6.6 101310 100
2007-02-19 09:56 51°11.556 2°36.709 2.6 350 6.6 101310 100
2007-02-19 09:57 51°11.763 2°36.759 2.1 345 6.5 101300 100
2007-02-19 09:58 51°11.972 2°36.807 2.5 352 6.5 101300 100
2007-02-19 09:59 51°12.178 2°36.871 3.2 354 6.5 101300 100
2007-02-19 10:00 51°12.385 2°36.931 2.8 5 6.5 101290 100
2007-02-19 10:01 51°12.593 2°36.993 3.7 1 6.5 101290 100
2007-02-19 10:02 51°12.8 2°37.052 4.1 7 6.5 101280 100
2007-02-19 10:03 51°13.003 2°37.116 4.3 6 6.5 101280 100
2007-02-19 10:04 51°13.21 2°37.176 4.2 7 6.5 101270 100
2007-02-19 10:05 51°13.416 2°37.234 3.9 7 6.5 101270 100
2007-02-19 10:06 51°13.624 2°37.155 1.8 1 6.6 101270 100
2007-02-19 10:07 51°13.845 2°37.072 2.4 -999 6.6 101270 100
2007-02-19 10:08 51°14.059 2°36.993 0.7 358 6.6 101280 100
2007-02-19 10:09 51°14.272 2°36.921 0.7 336 6.6 101280 100
2007-02-19 10:10 51°14.484 2°36.855 2.2 342 6.6 101280 100
2007-02-19 10:11 51°14.697 2°36.785 1.9 337 6.6 101280 100
2007-02-19 10:12 51°14.916 2°36.722 1.6 1 6.7 101280 100
2007-02-19 10:13 51°15.135 2°36.663 1.8 9 6.7 101270 100
2007-02-19 10:14 51°15.353 2°36.611 1.4 24 6.6 101270 100
2007-02-19 10:15 51°15.572 2°36.564 0.7 18 6.6 101270 100
2007-02-19 10:16 51°15.79 2°36.516 0.5 347 6.6 101270 100
2007-02-19 10:17 51°16.004 2°36.458 1.6 337 6.6 101270 100
2007-02-19 10:18 51°16.214 2°36.41 1.3 4 6.7 101270 100
2007-02-19 10:19 51°16.371 2°36.505 5.6 16 6.6 101270 100
2007-02-19 10:20 51°16.438 2°36.6 4.1 36 6.6 101270 100
2007-02-19 10:21 51°16.481 2°36.651 5.6 30 6.6 101270 100
2007-02-19 10:22 51°16.512 2°36.687 5.6 33 6.7 101270 100
2007-02-19 10:23 51°16.544 2°36.729 5.2 34 6.7 101270 100
2007-02-19 10:24 51°16.577 2°36.77 6.4 28 6.7 101260 100
2007-02-19 10:25 51°16.608 2°36.804 6.2 39 6.7 101260 100
2007-02-19 10:26 51°16.618 2°36.799 5 56 6.6 101260 100
2007-02-19 10:27 51°16.623 2°36.79 6 35 6.6 101260 100
2007-02-19 10:28 51°16.622 2°36.783 6.6 29 6.6 101260 100
2007-02-19 10:29 51°16.617 2°36.775 7.2 26 6.7 101260 100
2007-02-19 10:30 51°16.614 2°36.781 7 22 6.7 101250 100
2007-02-19 10:31 51°16.68 2°36.779 1.5 56 6.7 101260 100
2007-02-19 10:32 51°16.846 2°36.636 2.3 305 6.7 101260 100
2007-02-19 10:33 51°17.019 2°36.407 4.1 309 6.8 101250 100
2007-02-19 10:34 51°17.166 2°36.128 6 304 6.8 101250 100
2007-02-19 10:35 51°17.305 2°35.838 5 304 6.8 101250 100
2007-02-19 10:36 51°17.447 2°35.556 5.7 304 6.8 101250 100
2007-02-19 10:37 51°17.583 2°35.264 6.4 307 6.8 101240 100
2007-02-19 10:38 51°17.7 2°34.943 6.6 307 6.8 101240 100
2007-02-19 10:39 51°17.818 2°34.619 5.8 308 6.8 101240 100
2007-02-19 10:40 51°17.934 2°34.292 5.9 306 6.8 101240 100
2007-02-19 10:41 51°18.053 2°33.967 6.4 308 6.8 101230 100
2007-02-19 10:42 51°18.172 2°33.644 6.7 308 6.8 101230 100
2007-02-19 10:43 51°18.287 2°33.32 7.1 306 6.8 101230 100
2007-02-19 10:44 51°18.405 2°33 7.3 309 6.8 101230 100
2007-02-19 10:45 51°18.519 2°32.678 7.9 309 6.8 101230 100
2007-02-19 10:46 51°18.63 2°32.353 7.3 306 6.8 101220 100
2007-02-19 10:47 51°18.743 2°32.027 6.7 302 6.8 101230 100
2007-02-19 10:48 51°18.855 2°31.699 6.2 304 6.8 101230 100
2007-02-19 10:49 51°18.965 2°31.369 8.4 305 6.8 101230 100
2007-02-19 10:50 51°19.081 2°31.048 8 309 6.8 101220 100
2007-02-19 10:51 51°19.2 2°30.729 6.8 304 6.8 101220 100
2007-02-19 10:52 51°19.323 2°30.416 7 303 6.8 101220 100
2007-02-19 10:53 51°19.448 2°30.108 7.1 304 6.8 101220 100
2007-02-19 10:54 51°19.569 2°29.825 3.1 310 6.8 101220 100
2007-02-19 10:55 51°19.677 2°29.757 2.5 49 6.8 101220 100
2007-02-19 10:56 51°19.76 2°29.712 3.2 58 6.9 101230 100
2007-02-19 10:57 51°19.823 2°29.745 5.2 26 6.9 101210 100
2007-02-19 10:58 51°19.882 2°29.81 5.5 28 6.9 101210 99
2007-02-19 10:59 51°19.935 2°29.897 6.1 27 6.9 101210 99
2007-02-19 11:00 51°19.983 2°29.97 6.3 30 6.8 101210 99
2007-02-19 11:01 51°20.011 2°30.027 7.4 31 6.8 101210 99
2007-02-19 11:02 51°20.015 2°30.042 7 20 6.8 101210 99
2007-02-19 11:03 51°20.017 2°30.054 7 20 6.8 101200 99
2007-02-19 11:04 51°20.019 2°30.067 7.1 19 6.8 101200 99
2007-02-19 11:05 51°20.019 2°30.088 6.7 15 6.8 101200 100
2007-02-19 11:06 51°20.051 2°30.16 4.4 57 6.8 101200 99
2007-02-19 11:07 51°20.197 2°30.248 3.8 6 6.8 101210 99
2007-02-19 11:08 51°20.378 2°30.449 5.9 8 6.8 101200 99
2007-02-19 11:09 51°20.551 2°30.673 6.4 9 6.8 101200 100
2007-02-19 11:10 51°20.724 2°30.896 5.2 7 6.8 101200 100
2007-02-19 11:11 51°20.896 2°31.117 6.2 7 6.8 101200 99
2007-02-19 11:12 51°21.067 2°31.335 6.4 13 6.8 101200 99
2007-02-19 11:13 51°21.235 2°31.549 5.3 15 6.8 101200 100
2007-02-19 11:14 51°21.405 2°31.761 5.6 14 6.8 101200 100
2007-02-19 11:15 51°21.574 2°31.974 5.1 9 6.8 101200 100
2007-02-19 11:16 51°21.746 2°32.187 5.9 7 6.8 101190 100
2007-02-19 11:17 51°21.919 2°32.399 5.9 14 6.9 101190 100
2007-02-19 11:18 51°22.094 2°32.611 6.1 11 6.8 101190 100
2007-02-19 11:19 51°22.267 2°32.82 5.2 10 6.8 101190 100
2007-02-19 11:20 51°22.438 2°33.03 3.9 359 6.9 101190 100
2007-02-19 11:21 51°22.608 2°33.234 4.5 7 6.9 101190 100
2007-02-19 11:22 51°22.784 2°33.447 6.1 12 6.9 101180 100
2007-02-19 11:23 51°22.953 2°33.651 5.8 9 6.9 101190 100
2007-02-19 11:24 51°23.126 2°33.862 5.2 10 6.9 101180 100
2007-02-19 11:25 51°23.301 2°34.075 4.9 6 6.8 101190 100
2007-02-19 11:26 51°23.469 2°34.28 4.5 5 6.8 101180 100
2007-02-19 11:27 51°23.596 2°34.55 9.2 355 6.9 101180 100
2007-02-19 11:28 51°23.619 2°34.901 11 357 6.9 101160 100
2007-02-19 11:29 51°23.628 2°35.259 10.4 356 6.9 101160 100
2007-02-19 11:30 51°23.639 2°35.616 10 357 6.9 101160 100
2007-02-19 11:31 51°23.687 2°35.961 9 355 6.9 101160 100
2007-02-19 11:32 51°23.764 2°36.296 8 359 6.9 101160 100
2007-02-19 11:33 51°23.84 2°36.639 9.4 -999 6.9 101160 100
2007-02-19 11:34 51°23.913 2°36.978 8.8 359 6.9 101160 99
2007-02-19 11:35 51°23.983 2°37.32 8 360 6.9 101150 99
2007-02-19 11:36 51°24.056 2°37.66 8.9 1 6.9 101150 99
2007-02-19 11:37 51°24.136 2°37.999 8.6 359 6.9 101150 99
2007-02-19 11:38 51°24.218 2°38.336 8.4 -999 6.9 101150 100
2007-02-19 11:39 51°24.3 2°38.672 8.3 3 6.9 101150 100
2007-02-19 11:40 51°24.384 2°39.008 9.8 1 6.9 101150 99
2007-02-19 11:41 51°24.467 2°39.346 7.2 4 6.8 101150 99
2007-02-19 11:42 51°24.555 2°39.687 7 3 6.8 101150 99
2007-02-19 11:43 51°24.643 2°40.029 8.8 358 6.8 101150 99
2007-02-19 11:44 51°24.733 2°40.373 9.4 359 6.8 101140 99
2007-02-19 11:45 51°24.822 2°40.72 8.9 358 6.8 101150 99
2007-02-19 11:46 51°24.91 2°41.068 8.4 359 6.8 101140 99
2007-02-19 11:47 51°25 2°41.415 8.4 1 6.8 101140 99
2007-02-19 11:48 51°25.091 2°41.763 8.7 2 6.8 101140 99
2007-02-19 11:49 51°25.176 2°42.114 9.2 360 6.8 101130 99
2007-02-19 11:50 51°25.247 2°42.472 8.2 3 6.7 101130 99
2007-02-19 11:51 51°25.313 2°42.835 9.6 360 6.8 101130 99
2007-02-19 11:52 51°25.38 2°43.2 8.3 360 6.7 101130 99
2007-02-19 11:53 51°25.449 2°43.563 8.9 359 6.8 101130 100
2007-02-19 11:54 51°25.517 2°43.927 10.6 359 6.8 101120 100
2007-02-19 11:55 51°25.584 2°44.291 10 359 6.8 101120 100
2007-02-19 11:56 51°25.65 2°44.655 10.1 360 6.8 101120 99
2007-02-19 11:57 51°25.718 2°45.019 9.8 358 6.8 101120 99
2007-02-19 11:58 51°25.786 2°45.381 8.6 360 6.8 101120 100
2007-02-19 11:59 51°25.854 2°45.747 9.6 356 6.7 101120 100
2007-02-19 12:00 51°25.923 2°46.111 8.8 358 6.7 101110 99
2007-02-19 12:01 51°25.991 2°46.478 9.9 358 6.7 101120 99
2007-02-19 12:02 51°26.051 2°46.851 9.9 359 6.7 101120 100
2007-02-19 12:03 51°26.106 2°47.226 10.3 358 6.7 101120 100
2007-02-19 12:04 51°26.137 2°47.608 10.3 358 6.7 101110 99
2007-02-19 12:05 51°26.155 2°47.993 10.8 356 6.7 101110 100
2007-02-19 12:06 51°26.155 2°48.378 10.1 355 6.7 101110 100
2007-02-19 12:07 51°26.121 2°48.683 9.8 349 6.8 101110 100
2007-02-19 12:08 51°26.045 2°48.746 9 305 6.8 101130 100
2007-02-19 12:09 51°26.019 2°48.685 7.4 253 6.8 101110 99
2007-02-19 12:10 51°26.02 2°48.596 8.4 239 6.8 101130 99
2007-02-19 12:11 51°26.007 2°48.531 8.5 241 6.9 101120 100
2007-02-19 12:12 51°25.999 2°48.497 7.1 242 6.9 101120 100
2007-02-19 12:13 51°25.998 2°48.493 7.1 241 6.9 101110 99
2007-02-19 12:14 51°25.999 2°48.499 6.4 240 6.9 101110 99
2007-02-19 12:15 51°26.005 2°48.512 6.4 236 6.9 101110 99
2007-02-19 12:16 51°26.011 2°48.525 8.3 236 7 101110 99
2007-02-19 12:17 51°25.982 2°48.529 9.1 338 6.9 101100 99
2007-02-19 12:18 51°25.959 2°48.652 7.2 12 6.9 101100 99
2007-02-19 12:19 51°26.02 2°48.921 9.5 355 6.9 101100 99
2007-02-19 12:20 51°26.075 2°49.308 10.4 358 6.8 101090 99
2007-02-19 12:21 51°26.124 2°49.703 10.3 355 6.8 101100 99
2007-02-19 12:22 51°26.179 2°50.104 10 354 6.8 101090 99
2007-02-19 12:23 51°26.235 2°50.498 10.4 356 6.7 101090 99
2007-02-19 12:24 51°26.291 2°50.89 9.6 353 6.7 101100 99
2007-02-19 12:25 51°26.354 2°51.289 9 357 6.7 101090 100
2007-02-19 12:26 51°26.419 2°51.683 9.1 356 6.8 101090 100
2007-02-19 12:27 51°26.485 2°52.078 9.6 356 6.7 101100 100
2007-02-19 12:28 51°26.551 2°52.471 9.7 356 6.7 101090 100
2007-02-19 12:29 51°26.628 2°52.86 8.7 358 6.8 101090 100
2007-02-19 12:30 51°26.706 2°53.25 9 1 6.7 101090 100
2007-02-19 12:31 51°26.786 2°53.635 8.4 356 6.7 101090 100
2007-02-19 12:32 51°26.868 2°54.013 7.5 356 6.8 101090 100
2007-02-19 12:33 51°26.952 2°54.393 8.1 356 6.8 101090 100
2007-02-19 12:34 51°27.033 2°54.774 7.8 356 6.8 101090 100
2007-02-19 12:35 51°27.114 2°55.153 7.2 354 6.7 101090 100
2007-02-19 12:36 51°27.19 2°55.543 7.4 354 6.8 101090 100
2007-02-19 12:37 51°27.266 2°55.917 7.9 356 6.8 101090 100
2007-02-19 12:38 51°27.344 2°56.301 7.9 352 6.8 101080 100
2007-02-19 12:39 51°27.426 2°56.683 7.3 355 6.8 101080 100
2007-02-19 12:40 51°27.564 2°57.037 5.9 353 6.8 101090 99
2007-02-19 12:41 51°27.708 2°57.375 5.8 352 6.8 101090 99
2007-02-19 12:42 51°27.841 2°57.716 7.5 353 6.9 101090 99
2007-02-19 12:43 51°27.909 2°58.109 9.3 353 6.9 101080 99
2007-02-19 12:44 51°27.936 2°58.508 8.9 352 6.9 101080 99
2007-02-19 12:45 51°27.988 2°58.907 8.4 353 6.9 101080 99
2007-02-19 12:46 51°28.04 2°59.309 9 349 6.9 101070 99
2007-02-19 12:47 51°28.091 2°59.712 8.6 353 6.9 101070 99
2007-02-19 12:48 51°28.143 3°0.115 8.4 352 6.9 101080 99
2007-02-19 12:49 51°28.195 3°0.518 8.9 353 6.9 101070 99
2007-02-19 12:50 51°28.248 3°0.92 9 351 6.9 101070 99
2007-02-19 12:51 51°28.292 3°1.326 8.8 352 7 101080 98
2007-02-19 12:52 51°28.336 3°1.733 8.8 351 6.9 101080 98
2007-02-19 12:53 51°28.382 3°2.141 8.7 354 6.9 101070 98
2007-02-19 12:54 51°28.421 3°2.548 8.5 350 6.9 101070 98
2007-02-19 12:55 51°28.443 3°2.957 9.2 350 6.9 101070 98
2007-02-19 12:56 51°28.453 3°3.342 8.6 354 7 101070 98
2007-02-19 12:57 51°28.46 3°3.646 7.7 357 7 101080 98
2007-02-19 12:58 51°28.42 3°3.814 6.9 338 7 101070 98
2007-02-19 12:59 51°28.377 3°3.822 6.7 30 7 101080 98
2007-02-19 13:00 51°28.364 3°3.751 7.8 306 7 101070 98
2007-02-19 13:01 51°28.333 3°3.666 8 32 7 101070 98
2007-02-19 13:02 51°28.306 3°3.576 7 236 7.1 101070 98
2007-02-19 13:03 51°28.29 3°3.531 6.6 235 7.1 101060 98
2007-02-19 13:04 51°28.279 3°3.501 5.8 33 7.1 101070 98
2007-02-19 13:05 51°28.271 3°3.481 5.9 244 7.1 101070 98
2007-02-19 13:06 51°28.285 3°3.489 6.9 249 7.1 101070 97
2007-02-19 13:07 51°28.303 3°3.503 6.9 311 7.1 101070 97
2007-02-19 13:08 51°28.322 3°3.524 6.4 250 7.2 101070 97
2007-02-19 13:09 51°28.342 3°3.549 5.8 251 7.2 101070 97
2007-02-19 13:10 51°28.358 3°3.563 7.2 36 7.2 101060 97
2007-02-19 13:11 51°28.332 3°3.582 8.2 341 7.2 101060 97
2007-02-19 13:12 51°28.286 3°3.771 10.6 346 7.2 101050 97
2007-02-19 13:13 51°28.173 3°4.087 11.3 343 7.2 101050 97
2007-02-19 13:14 51°28.049 3°4.415 11.1 343 7.2 101050 97
2007-02-19 13:15 51°27.92 3°4.749 11 344 7.2 101040 97
2007-02-19 13:16 51°27.796 3°5.079 11.2 343 7.2 101040 97
2007-02-19 13:17 51°27.671 3°5.414 10.5 341 7.2 101040 97
2007-02-19 13:18 51°27.551 3°5.756 10.3 341 7.3 101050 97
2007-02-19 13:19 51°27.433 3°6.099 10.1 341 7.3 101040 97
2007-02-19 13:20 51°27.32 3°6.448 10.6 340 7.3 101040 97
2007-02-19 13:21 51°27.205 3°6.792 10.5 341 7.3 101040 97
2007-02-19 13:22 51°27.09 3°7.134 10.5 342 7.3 101040 97
2007-02-19 13:23 51°26.97 3°7.471 10.4 340 7.3 101050 97
2007-02-19 13:24 51°26.851 3°7.809 10.4 341 7.3 101050 97
2007-02-19 13:25 51°26.732 3°8.149 10.6 342 7.3 101040 97
2007-02-19 13:26 51°26.612 3°8.486 10.9 342 7.3 101030 97
2007-02-19 13:27 51°26.491 3°8.8 9.5 336 7.3 101030 97
2007-02-19 13:28 51°26.402 3°8.81 7 233 7.3 101040 97
2007-02-19 13:29 51°26.415 3°8.709 5.9 240 7.3 101050 97
2007-02-19 13:30 51°26.432 3°8.565 6.5 248 7.3 101050 97
2007-02-19 13:31 51°26.439 3°8.474 5 243 7.3 101040 97
2007-02-19 13:32 51°26.444 3°8.407 5.1 237 7.3 101050 97
2007-02-19 13:33 51°26.447 3°8.35 5.2 246 7.3 101050 97
2007-02-19 13:34 51°26.456 3°8.314 5.5 253 7.3 101050 97
2007-02-19 13:35 51°26.47 3°8.319 4.7 258 7.3 101050 97
2007-02-19 13:36 51°26.487 3°8.329 4.1 261 7.3 101050 97
2007-02-19 13:37 51°26.503 3°8.34 4.4 252 7.3 101050 97
2007-02-19 13:38 51°26.49 3°8.314 6.5 323 7.4 101040 97
2007-02-19 13:39 51°26.427 3°8.394 8.4 339 7.4 101040 97
2007-02-19 13:40 51°26.314 3°8.675 10.8 342 7.4 101020 97
2007-02-19 13:41 51°26.242 3°9.043 10.5 345 7.4 101020 97
2007-02-19 13:42 51°26.19 3°9.426 11.1 344 7.3 101020 97
2007-02-19 13:43 51°26.127 3°9.805 11 344 7.3 101020 97
2007-02-19 13:44 51°26.062 3°10.182 10.7 343 7.3 101020 97
2007-02-19 13:45 51°25.994 3°10.559 10.2 345 7.3 101020 97
2007-02-19 13:46 51°25.932 3°10.937 10.1 344 7.3 101020 97
2007-02-19 13:47 51°25.87 3°11.314 9.2 344 7.3 101020 97
2007-02-19 13:48 51°25.805 3°11.687 9.6 344 7.3 101020 97
2007-02-19 13:49 51°25.749 3°12.064 8.8 345 7.3 101030 97
2007-02-19 13:50 51°25.742 3°12.454 8.2 346 7.3 101030 97
2007-02-19 13:51 51°25.749 3°12.854 8.5 346 7.3 101030 97
2007-02-19 13:52 51°25.753 3°13.249 9.1 345 7.3 101020 97
2007-02-19 13:53 51°25.773 3°13.641 8.2 345 7.3 101020 97
2007-02-19 13:54 51°25.811 3°14.028 8.9 348 7.3 101020 97
2007-02-19 13:55 51°25.848 3°14.415 9.1 348 7.3 101020 97
2007-02-19 13:56 51°25.882 3°14.804 9 349 7.2 101020 97
2007-02-19 13:57 51°25.914 3°15.193 9.2 349 7.2 101020 97
2007-02-19 13:58 51°25.946 3°15.579 8.3 346 7.2 101020 97
2007-02-19 13:59 51°25.979 3°15.966 8.5 346 7.2 101020 97
2007-02-19 14:00 51°26.012 3°16.354 8.6 345 7.2 101020 97
2007-02-19 14:01 51°26.046 3°16.743 8.5 347 7.2 101020 97
2007-02-19 14:02 51°26.067 3°17.132 9.6 348 7.2 101020 97
2007-02-19 14:03 51°26.082 3°17.524 9.2 349 7.2 101020 97
2007-02-19 14:04 51°26.095 3°17.917 8.9 349 7.1 101020 97
2007-02-19 14:05 51°26.052 3°18.138 7 334 7.1 101030 97
2007-02-19 14:06 51°25.989 3°18.152 6.8 305 7.1 101020 97
2007-02-19 14:07 51°25.971 3°18.07 5.9 304 7.2 101020 97
2007-02-19 14:08 51°25.942 3°17.967 7.3 32 7.2 101020 97
2007-02-19 14:09 51°25.917 3°17.873 6.4 303 7.1 101020 97
2007-02-19 14:10 51°25.909 3°17.81 5.7 245 7.2 101020 97
2007-02-19 14:11 51°25.908 3°17.79 4.9 305 7.2 101020 97
2007-02-19 14:12 51°25.915 3°17.789 4.5 307 7.2 101020 97
2007-02-19 14:13 51°25.923 3°17.792 4.5 255 7.2 101020 97
2007-02-19 14:14 51°25.928 3°17.789 5 310 7.2 101020 97
2007-02-19 14:15 51°25.93 3°17.715 6.5 306 7.2 101020 97
2007-02-19 14:16 51°25.852 3°17.711 9.2 330 7.2 101010 97
2007-02-19 14:17 51°25.664 3°17.735 10.9 304 7.2 100990 97
2007-02-19 14:18 51°25.45 3°17.718 11.5 306 7.2 100990 97
2007-02-19 14:19 51°25.237 3°17.693 12.2 305 7.2 100990 97
2007-02-19 14:20 51°25.018 3°17.678 11.8 324 7.1 100980 97
2007-02-19 14:21 51°24.798 3°17.664 13.3 306 7.1 100970 97
2007-02-19 14:22 51°24.58 3°17.682 11.9 323 7.1 100970 97
2007-02-19 14:23 51°24.369 3°17.652 12.2 326 7.1 100970 97
2007-02-19 14:24 51°24.149 3°17.635 13.5 326 7.1 100970 97
2007-02-19 14:25 51°23.931 3°17.618 12.8 303 7.1 100970 97
2007-02-19 14:26 51°23.744 3°17.524 11.2 304 7.1 100970 97
2007-02-19 14:27 51°23.673 3°17.239 10.1 305 7.1 100970 97
2007-02-19 14:28 51°23.598 3°16.944 11 306 7.1 100970 97
2007-02-19 14:29 51°23.521 3°16.651 10.9 31 7 100960 97
2007-02-19 14:30 51°23.446 3°16.357 10.9 306 7 100960 97
2007-02-19 14:31 51°23.373 3°16.062 10 30 7 100960 97
2007-02-19 14:32 51°23.3 3°15.776 10.5 306 7 100960 97
2007-02-19 14:33 51°23.226 3°15.495 9 39 7 100960 97
2007-02-19 14:34 51°23.154 3°15.212 9.5 37 7 100970 97
2007-02-19 14:35 51°23.081 3°14.928 8 310 7 100960 97
2007-02-19 14:36 51°23.008 3°14.643 9 304 7 100970 97
2007-02-19 14:37 51°22.93 3°14.361 9 304 7 100960 97
2007-02-19 14:38 51°22.854 3°14.078 8.7 35 7 100970 97
2007-02-19 14:39 51°22.779 3°13.805 7.9 302 7 100960 97
2007-02-19 14:40 51°22.709 3°13.56 9.2 36 7 100980 98
2007-02-19 14:41 51°22.652 3°13.392 6.4 303 7 100970 98
2007-02-19 14:42 51°22.623 3°13.286 5.8 33 7.1 100980 98
2007-02-19 14:43 51°22.606 3°13.218 5 305 7.1 100980 98
2007-02-19 14:44 51°22.599 3°13.2 4.8 250 7.1 100980 98
2007-02-19 14:45 51°22.608 3°13.214 4.9 259 7.1 100990 98
2007-02-19 14:46 51°22.619 3°13.235 4.4 304 7.2 100990 98
2007-02-19 14:47 51°22.631 3°13.261 6.1 253 7.2 100980 98
2007-02-19 14:48 51°22.624 3°13.239 6.5 304 7.2 100980 97
2007-02-19 14:49 51°22.598 3°13.088 7 235 7.2 100970 97
2007-02-19 14:50 51°22.59 3°12.794 8.3 309 7.2 100970 97
2007-02-19 14:51 51°22.57 3°12.486 8.9 36 7.2 100960 97
2007-02-19 14:52 51°22.515 3°12.191 9 316 7.1 100970 97
2007-02-19 14:53 51°22.448 3°11.899 10.8 34 7.1 100960 97
2007-02-19 14:54 51°22.383 3°11.602 10.9 33 7.1 100950 97
2007-02-19 14:55 51°22.316 3°11.297 8.8 304 7.1 100960 97
2007-02-19 14:56 51°22.256 3°10.996 9 305 7.1 100970 98
2007-02-19 14:57 51°22.215 3°10.678 10.5 310 7 100960 98
2007-02-19 14:58 51°22.174 3°10.358 10.2 305 7 100960 98
2007-02-19 14:59 51°22.132 3°10.035 9.4 308 7 100960 98
2007-02-19 15:00 51°22.094 3°9.718 9.1 309 7 100960 98
2007-02-19 15:01 51°22.063 3°9.393 9.9 303 7 100970 98
2007-02-19 15:02 51°22.037 3°9.07 9.2 310 7 100970 98
2007-02-19 15:03 51°22.009 3°8.742 8.8 306 7 100970 98
2007-02-19 15:04 51°21.981 3°8.421 9.4 305 7 100970 98
2007-02-19 15:05 51°21.955 3°8.094 9.1 307 7 100970 98
2007-02-19 15:06 51°21.925 3°7.769 9.1 306 7.1 100970 98
2007-02-19 15:07 51°21.896 3°7.446 10.7 309 7.1 100970 98
2007-02-19 15:08 51°21.857 3°7.131 10.6 303 7.1 100970 99
2007-02-19 15:09 51°21.816 3°6.815 9.5 305 7.1 100960 99
2007-02-19 15:10 51°21.773 3°6.5 10.5 307 7.1 100970 99
2007-02-19 15:11 51°21.733 3°6.185 10.5 307 7.2 100960 99
2007-02-19 15:12 51°21.692 3°5.869 10.4 307 7.1 100960 99
2007-02-19 15:13 51°21.638 3°5.559 11.3 308 7.1 100970 99
2007-02-19 15:14 51°21.584 3°5.249 10.5 306 7.2 100960 99
2007-02-19 15:15 51°21.531 3°4.938 11.2 304 7.2 100960 99
2007-02-19 15:16 51°21.477 3°4.628 9.8 304 7.2 100970 99
2007-02-19 15:17 51°21.425 3°4.319 11.4 303 7.2 100970 99
2007-02-19 15:18 51°21.368 3°4.011 10.5 305 7.2 100970 99
2007-02-19 15:19 51°21.311 3°3.702 10.7 309 7.2 100970 99
2007-02-19 15:20 51°21.254 3°3.392 11.2 307 7.2 100970 99
2007-02-19 15:21 51°21.192 3°3.083 11.5 305 7.2 100970 99
2007-02-19 15:22 51°21.133 3°2.774 12.4 304 7.2 100970 99
2007-02-19 15:23 51°21.074 3°2.464 11.3 307 7.2 100970 99
2007-02-19 15:24 51°21.009 3°2.166 11.3 307 7.2 100970 99
2007-02-19 15:25 51°20.944 3°1.862 11.7 308 7.2 100960 99
2007-02-19 15:26 51°20.878 3°1.557 11.7 306 7.2 100960 99
2007-02-19 15:27 51°20.809 3°1.253 11.4 306 7.2 100960 99
2007-02-19 15:28 51°20.743 3°0.945 11.1 306 7.2 100960 99
2007-02-19 15:29 51°20.676 3°0.638 11.9 306 7.2 100960 99
2007-02-19 15:30 51°20.612 3°0.33 11.1 310 7.2 100960 99
2007-02-19 15:31 51°20.537 3°0.029 11.3 306 7.2 100960 99
2007-02-19 15:32 51°20.464 2°59.721 11.6 305 7.2 100960 99
2007-02-19 15:33 51°20.393 2°59.414 11.3 319 7.3 100960 99
2007-02-19 15:34 51°20.322 2°59.106 11.1 304 7.3 100960 99
2007-02-19 15:35 51°20.252 2°58.8 12 306 7.3 100950 99
2007-02-19 15:36 51°20.183 2°58.495 11 302 7.3 100960 99
2007-02-19 15:37 51°20.113 2°58.19 10.8 304 7.3 100950 99
2007-02-19 15:38 51°20.043 2°57.883 11.4 305 7.3 100950 99
2007-02-19 15:39 51°19.972 2°57.574 10.3 304 7.3 100960 99
2007-02-19 15:40 51°19.898 2°57.263 11.3 302 7.3 100950 99
2007-02-19 15:41 51°19.829 2°56.949 11.3 304 7.3 100950 99
2007-02-19 15:42 51°19.76 2°56.635 12.1 308 7.3 100950 99
2007-02-19 15:43 51°19.688 2°56.322 10.9 309 7.3 100950 99
2007-02-19 15:44 51°19.614 2°56.01 11.9 307 7.4 100940 99
2007-02-19 15:45 51°19.539 2°55.698 10.9 302 7.4 100950 99
2007-02-19 15:46 51°19.467 2°55.386 11 308 7.4 100940 99
2007-02-19 15:47 51°19.397 2°55.074 10.1 303 7.4 100940 99
2007-02-19 15:48 51°19.328 2°54.761 11.2 310 7.4 100940 99
2007-02-19 15:49 51°19.258 2°54.449 11 35 7.4 100940 99
2007-02-19 15:50 51°19.188 2°54.136 10.9 35 7.4 100940 99
2007-02-19 15:51 51°19.118 2°53.822 11.1 309 7.4 100940 99
2007-02-19 15:52 51°19.048 2°53.508 10.7 309 7.4 100940 99
2007-02-19 15:53 51°18.978 2°53.195 11.8 303 7.4 100940 99
2007-02-19 15:54 51°18.907 2°52.882 10.7 307 7.4 100940 99
2007-02-19 15:55 51°18.839 2°52.565 10.6 316 7.4 100940 99
2007-02-19 15:56 51°18.768 2°52.249 9.8 316 7.4 100940 99
2007-02-19 15:57 51°18.711 2°51.975 9.7 36 7.4 100950 100
2007-02-19 15:58 51°18.666 2°51.752 8.4 34 7.4 100950 100
2007-02-19 15:59 51°18.639 2°51.617 6.9 32 7.4 100960 100
2007-02-19 16:00 51°18.618 2°51.524 7.9 34 7.4 100970 100
2007-02-19 16:01 51°18.597 2°51.441 7.7 234 7.4 100960 100
2007-02-19 16:02 51°18.578 2°51.355 6.6 32 7.4 100960 100
2007-02-19 16:03 51°18.553 2°51.258 7.4 235 7.4 100960 100
2007-02-19 16:04 51°18.531 2°51.146 6.7 37 7.4 100960 100
2007-02-19 16:05 51°18.507 2°51.036 6.3 239 7.4 100960 100
2007-02-19 16:06 51°18.516 2°50.962 5.8 262 7.4 100970 100
2007-02-19 16:07 51°18.535 2°50.967 4.4 33 7.4 100980 100
2007-02-19 16:08 51°18.557 2°50.979 6.1 37 7.4 100980 100
2007-02-19 16:09 51°18.581 2°50.99 5.8 36 7.4 100980 100
2007-02-19 16:10 51°18.613 2°50.977 5.1 251 7.4 100980 100
2007-02-19 16:11 51°18.603 2°50.917 7.3 323 7.4 100960 100
2007-02-19 16:12 51°18.543 2°50.995 9.6 344 7.4 100960 100
2007-02-19 16:13 51°18.392 2°51.191 11.6 335 7.4 100950 100
2007-02-19 16:14 51°18.195 2°51.303 11.9 332 7.4 100960 100
2007-02-19 16:15 51°17.991 2°51.411 11.9 333 7.4 100960 100
2007-02-19 16:16 51°17.79 2°51.516 12.5 334 7.4 100960 100
2007-02-19 16:17 51°17.589 2°51.622 12.2 332 7.4 100950 100
2007-02-19 16:18 51°17.39 2°51.737 12.4 335 7.4 100960 100
2007-02-19 16:19 51°17.243 2°51.982 12.3 343 7.4 100950 100
2007-02-19 16:20 51°17.144 2°52.298 11.1 343 7.4 100950 100
2007-02-19 16:21 51°17.046 2°52.618 11.2 341 7.4 100960 100
2007-02-19 16:22 51°16.946 2°52.935 11.6 342 7.4 100960 100
2007-02-19 16:23 51°16.845 2°53.251 11.7 342 7.4 100960 100
2007-02-19 16:24 51°16.738 2°53.569 11.7 343 7.3 100950 100
2007-02-19 16:25 51°16.628 2°53.884 11.4 341 7.3 100950 100
2007-02-19 16:26 51°16.52 2°54.198 11.7 342 7.4 100950 100
2007-02-19 16:27 51°16.411 2°54.508 10.2 342 7.3 100960 100
2007-02-19 16:28 51°16.308 2°54.551 6.7 32 7.4 100970 100
2007-02-19 16:29 51°16.288 2°54.451 6.4 240 7.4 100960 100
2007-02-19 16:30 51°16.269 2°54.376 5.2 242 7.3 100960 100
2007-02-19 16:31 51°16.254 2°54.309 5.8 237 7.4 100960 100
2007-02-19 16:32 51°16.249 2°54.284 5.8 251 7.4 100960 100
2007-02-19 16:33 51°16.258 2°54.284 7.4 255 7.4 100970 100
2007-02-19 16:34 51°16.269 2°54.282 4 263 7.4 100970 100
2007-02-19 16:35 51°16.282 2°54.279 4.1 262 7.4 100970 100
2007-02-19 16:36 51°16.244 2°54.195 9.1 323 7.4 100950 100
2007-02-19 16:37 51°16.069 2°54.201 13.1 330 7.4 100950 100
2007-02-19 16:38 51°15.855 2°54.243 12.4 330 7.4 100950 100
2007-02-19 16:39 51°15.639 2°54.293 12 332 7.4 100960 100
2007-02-19 16:40 51°15.425 2°54.359 11.4 332 7.4 100960 100
2007-02-19 16:41 51°15.211 2°54.429 11.8 332 7.4 100960 100
2007-02-19 16:42 51°15.003 2°54.524 11.3 331 7.4 100960 100
2007-02-19 16:43 51°14.792 2°54.62 13 333 7.4 100960 100
2007-02-19 16:44 51°14.594 2°54.768 11 336 7.4 100960 100
2007-02-19 16:45 51°14.416 2°54.968 9 339 7.4 100960 100
2007-02-19 16:46 51°14.277 2°55.231 10.4 336 7.4 100960 100
2007-02-19 16:47 51°14.134 2°55.4 9 330 7.4 100960 100
2007-02-19 16:48 51°14.008 2°55.494 9.4 331 7.4 100950 100
2007-02-19 16:49 51°13.895 2°55.577 7.6 335 7.4 100960 100
2007-02-19 16:50 51°13.79 2°55.668 8.7 338 7.4 100960 100
2007-02-19 16:51 51°13.703 2°55.793 5.9 337 7.4 100970 100
2007-02-19 16:52 51°13.649 2°55.911 5.3 340 7.4 100970 100
2007-02-19 16:53 51°13.617 2°56.008 4.9 342 7.3 100970 100
2007-02-19 16:54 51°13.602 2°56.079 5.1 350 7.3 100970 100
2007-02-19 16:55 51°13.599 2°56.093 4.4 356 7.3 100970 100